Time;durP1;ratioP1;P1;durP2;ratioP2;P2;SDS_P1;SDS_P2;PMS_P1;PMS_P2;Temp;Humidity;BMP_temperature;BMP_pressure;BME280_temperature;BME280_humidity;BME280_pressure;Samples;Min_cycle;Max_cycle;Signal;HPM_P1;HPM_P2
2021/05/12 00:00:14;;;;;;;22.98;17.65;;;10.60;99.90;;;;;;5071348;28;20024;-65
2021/05/12 00:02:40;;;;;;;25.00;18.50;;;10.50;99.90;;;;;;5071136;28;20067;-65
2021/05/12 00:05:08;;;;;;;22.13;17.52;;;10.50;99.90;;;;;;5069761;28;20052;-65
2021/05/12 00:07:34;;;;;;;21.83;16.58;;;10.60;99.90;;;;;;5071520;28;20028;-64
2021/05/12 00:10:00;;;;;;;23.60;17.35;;;10.60;99.90;;;;;;5071280;28;20534;-65
2021/05/12 00:12:25;;;;;;;22.38;17.08;;;10.60;99.90;;;;;;5070096;28;20059;-65
2021/05/12 00:14:51;;;;;;;22.52;16.33;;;10.70;99.90;;;;;;5071041;28;20033;-65
2021/05/12 00:17:18;;;;;;;20.25;15.35;;;10.80;99.90;;;;;;5069904;28;20028;-64
2021/05/12 00:19:51;;;;;;;23.35;15.52;;;10.80;99.90;;;;;;5071318;28;20104;-64
2021/05/12 00:22:31;;;;;;;31.67;17.63;;;10.90;99.90;;;;;;5071257;28;20043;-64
2021/05/12 00:24:57;;;;;;;23.83;16.88;;;11.00;99.90;;;;;;5071163;28;20070;-64
2021/05/12 00:27:23;;;;;;;27.85;18.15;;;11.00;99.90;;;;;;5071267;28;20056;-64
2021/05/12 00:29:48;;;;;;;27.00;18.50;;;10.90;99.90;;;;;;5069584;28;20024;-65
2021/05/12 00:32:14;;;;;;;26.60;18.17;;;10.90;99.90;;;;;;5070705;28;20067;-65
2021/05/12 00:34:40;;;;;;;27.90;17.77;;;10.90;99.90;;;;;;5069508;28;20078;-65
2021/05/12 00:37:05;;;;;;;29.75;19.38;;;10.80;99.90;;;;;;5070999;28;20485;-65
2021/05/12 00:39:31;;;;;;;33.25;19.27;;;10.80;99.90;;;;;;5069227;28;20070;-65
2021/05/12 00:41:59;;;;;;;29.42;17.73;;;10.80;99.90;;;;;;5070878;28;20046;-65
2021/05/12 00:44:25;;;;;;;28.80;18.58;;;10.80;99.90;;;;;;5070928;28;20234;-65
2021/05/12 00:46:51;;;;;;;23.40;15.88;;;10.80;99.90;;;;;;5070981;28;20444;-65
2021/05/12 00:49:17;;;;;;;27.45;17.27;;;10.80;99.90;;;;;;5069342;28;20067;-65
2021/05/12 00:51:44;;;;;;;24.45;17.95;;;10.80;99.90;;;;;;5070609;28;20029;-65
2021/05/12 00:54:10;;;;;;;32.47;17.85;;;10.80;99.90;;;;;;5070502;28;20029;-65
2021/05/12 00:56:40;;;;;;;24.65;18.00;;;10.80;99.90;;;;;;5071037;28;20421;-65
2021/05/12 00:59:06;;;;;;;28.27;19.35;;;10.70;99.90;;;;;;5070678;28;20426;-64
2021/05/12 01:01:31;;;;;;;25.52;18.38;;;10.70;99.90;;;;;;5070610;28;20059;-65
2021/05/12 01:03:57;;;;;;;25.85;17.83;;;10.60;99.90;;;;;;5068772;28;20027;-65
2021/05/12 01:06:28;;;;;;;26.05;17.58;;;10.60;99.90;;;;;;5070579;28;20032;-65
2021/05/12 01:08:54;;;;;;;23.20;17.27;;;10.50;99.90;;;;;;5070698;28;20104;-65
2021/05/12 01:11:20;;;;;;;26.50;17.73;;;10.50;99.90;;;;;;5070604;28;20115;-65
2021/05/12 01:13:46;;;;;;;25.17;18.25;;;10.50;99.90;;;;;;5070432;28;20036;-65
2021/05/12 01:16:12;;;;;;;32.38;19.48;;;10.50;99.90;;;;;;5069126;28;20031;-65
2021/05/12 01:18:38;;;;;;;25.48;18.92;;;10.50;99.90;;;;;;5070548;28;20401;-65
2021/05/12 01:21:07;;;;;;;24.85;19.20;;;10.40;99.90;;;;;;5070421;28;20442;-65
2021/05/12 01:23:35;;;;;;;25.00;20.55;;;10.40;99.90;;;;;;5070575;28;20478;-66
2021/05/12 01:26:04;;;;;;;27.60;19.70;;;10.30;99.90;;;;;;5070241;28;20021;-65
2021/05/12 01:28:34;;;;;;;28.95;21.63;;;10.20;99.90;;;;;;5070401;28;20033;-64
2021/05/12 01:31:18;;;;;;;29.83;22.40;;;10.30;99.90;;;;;;5068817;28;20396;-64
2021/05/12 01:33:45;;;;;;;33.00;23.58;;;10.30;99.90;;;;;;5069905;28;20040;-65
2021/05/12 01:36:12;;;;;;;31.67;22.02;;;10.30;99.90;;;;;;5069084;28;20052;-65
2021/05/12 01:38:41;;;;;;;30.75;22.75;;;10.30;99.90;;;;;;5070243;28;20108;-65
2021/05/12 01:41:07;;;;;;;32.13;21.63;;;10.30;99.90;;;;;;5069984;28;20032;-65
2021/05/12 01:43:34;;;;;;;25.73;20.00;;;10.30;99.90;;;;;;5070073;28;20509;-65
2021/05/12 01:46:00;;;;;;;28.08;18.88;;;10.30;99.90;;;;;;5068851;28;20052;-65
2021/05/12 01:48:31;;;;;;;24.98;18.33;;;10.30;99.90;;;;;;5070427;28;20086;-65
2021/05/12 01:50:57;;;;;;;30.50;18.08;;;10.20;99.90;;;;;;5072533;28;20024;-65
2021/05/12 01:53:24;;;;;;;25.35;18.17;;;10.10;99.90;;;;;;5073737;28;20024;-65
2021/05/12 01:55:51;;;;;;;27.45;18.38;;;10.10;99.90;;;;;;5073695;28;20027;-65
2021/05/12 01:58:17;;;;;;;28.10;19.25;;;10.00;99.90;;;;;;5073989;28;20079;-65
2021/05/12 02:00:50;;;;;;;26.73;18.55;;;10.00;99.90;;;;;;5073775;28;20095;-65
2021/05/12 02:03:17;;;;;;;22.83;17.77;;;10.00;99.90;;;;;;5073473;28;20074;-65
2021/05/12 02:05:44;;;;;;;25.67;17.90;;;9.90;99.90;;;;;;5072291;28;20429;-65
2021/05/12 02:08:12;;;;;;;27.45;19.02;;;9.90;99.90;;;;;;5073643;28;20400;-66
2021/05/12 02:10:42;;;;;;;25.45;19.27;;;9.80;99.90;;;;;;5073752;28;20029;-65
2021/05/12 02:13:08;;;;;;;28.63;21.10;;;9.80;99.90;;;;;;5071978;28;20078;-65
2021/05/12 02:15:34;;;;;;;28.05;22.35;;;9.80;99.90;;;;;;5073578;28;20381;-65
2021/05/12 02:17:59;;;;;;;28.52;22.60;;;9.80;99.90;;;;;;5073838;28;20492;-65
2021/05/12 02:20:29;;;;;;;24.83;20.10;;;9.90;99.90;;;;;;5073390;28;20033;-65
2021/05/12 02:22:56;;;;;;;25.77;20.92;;;9.80;99.90;;;;;;5072108;28;20469;-65
2021/05/12 02:25:22;;;;;;;24.63;20.77;;;9.80;99.90;;;;;;5073045;28;20100;-66
2021/05/12 02:27:48;;;;;;;29.63;22.23;;;9.70;99.90;;;;;;5073387;28;20425;-64
2021/05/12 02:30:15;;;;;;;29.55;22.30;;;9.60;99.90;;;;;;5072026;28;20531;-64
2021/05/12 02:32:41;;;;;;;29.30;21.02;;;9.70;99.90;;;;;;5071616;28;20024;-64
2021/05/12 02:35:09;;;;;;;27.63;20.60;;;9.60;99.90;;;;;;5073229;28;20476;-64
2021/05/12 02:37:35;;;;;;;28.50;21.25;;;9.50;99.90;;;;;;5073309;28;20060;-64
2021/05/12 02:40:01;;;;;;;27.73;18.45;;;9.60;99.90;;;;;;5073038;28;20428;-64
2021/05/12 02:42:27;;;;;;;25.95;18.42;;;9.60;99.90;;;;;;5071527;28;20031;-64
2021/05/12 02:44:52;;;;;;;23.05;17.98;;;9.60;99.90;;;;;;5072854;28;20533;-64
2021/05/12 02:47:18;;;;;;;23.98;17.10;;;9.50;99.90;;;;;;5073012;28;20028;-64
2021/05/12 02:49:43;;;;;;;24.35;16.38;;;9.60;99.90;;;;;;5072700;28;20452;-64
2021/05/12 02:52:09;;;;;;;23.45;16.38;;;9.60;99.90;;;;;;5071579;28;20064;-65
2021/05/12 02:54:35;;;;;;;20.90;14.43;;;9.60;99.90;;;;;;5072897;28;20432;-64
2021/05/12 02:57:02;;;;;;;21.05;13.88;;;9.50;99.90;;;;;;5072722;28;20038;-64
2021/05/12 02:59:28;;;;;;;21.52;13.77;;;9.50;99.90;;;;;;5072674;28;20025;-64
2021/05/12 03:01:54;;;;;;;19.05;13.52;;;9.40;99.90;;;;;;5071682;28;20046;-64
2021/05/12 03:04:19;;;;;;;25.40;13.07;;;9.40;99.90;;;;;;5071248;28;20029;-64
2021/05/12 03:06:45;;;;;;;20.55;13.38;;;9.40;99.90;;;;;;5071215;28;20031;-64
2021/05/12 03:09:11;;;;;;;16.88;13.25;;;9.20;99.90;;;;;;5072583;28;20059;-64
2021/05/12 03:11:36;;;;;;;18.35;13.18;;;9.10;99.90;;;;;;5072323;28;20032;-64
2021/05/12 03:14:05;;;;;;;25.60;15.93;;;9.00;99.90;;;;;;5072451;28;20107;-64
2021/05/12 03:16:31;;;;;;;18.23;12.70;;;9.00;99.90;;;;;;5071499;28;20384;-64
2021/05/12 03:18:57;;;;;;;21.42;14.80;;;9.10;99.90;;;;;;5071038;28;20028;-64
2021/05/12 03:21:23;;;;;;;20.30;14.60;;;9.10;99.90;;;;;;5072656;28;20025;-64
2021/05/12 03:23:49;;;;;;;20.92;14.70;;;9.10;99.90;;;;;;5072037;28;20251;-65
2021/05/12 03:26:16;;;;;;;23.65;16.65;;;9.00;99.90;;;;;;5072448;28;20045;-64
2021/05/12 03:28:43;;;;;;;22.95;16.15;;;8.90;99.90;;;;;;5072405;28;20024;-64
2021/05/12 03:31:10;;;;;;;20.80;15.18;;;9.00;99.90;;;;;;5070775;28;20036;-64
2021/05/12 03:33:35;;;;;;;27.73;18.70;;;9.00;99.90;;;;;;5070379;28;20408;-64
2021/05/12 03:36:01;;;;;;;19.92;14.70;;;9.00;99.90;;;;;;5072078;28;20029;-64
2021/05/12 03:38:26;;;;;;;23.90;15.75;;;9.10;99.90;;;;;;5070730;28;20051;-64
2021/05/12 03:40:52;;;;;;;23.55;16.67;;;9.10;99.90;;;;;;5071528;28;20009;-64
2021/05/12 03:43:18;;;;;;;24.42;16.35;;;9.10;99.90;;;;;;5071794;28;20077;-65
2021/05/12 03:45:43;;;;;;;21.33;16.30;;;9.00;99.90;;;;;;5070538;28;20020;-65
2021/05/12 03:48:09;;;;;;;21.08;16.10;;;9.00;99.90;;;;;;5071970;28;20024;-64
2021/05/12 03:50:35;;;;;;;21.95;17.13;;;9.00;99.90;;;;;;5071702;28;20406;-64
2021/05/12 03:53:01;;;;;;;20.55;16.85;;;9.10;99.90;;;;;;5071954;28;20028;-64
2021/05/12 03:55:27;;;;;;;20.63;16.20;;;9.10;99.90;;;;;;5071533;28;20044;-64
2021/05/12 03:57:52;;;;;;;21.58;15.88;;;9.10;99.90;;;;;;5070390;28;20424;-64
2021/05/12 04:00:19;;;;;;;22.48;15.95;;;9.30;99.90;;;;;;5071356;28;20017;-64
2021/05/12 04:02:44;;;;;;;22.50;16.00;;;9.30;99.90;;;;;;5071091;28;20051;-64
2021/05/12 04:05:13;;;;;;;24.40;15.82;;;9.40;99.90;;;;;;5071573;28;20048;-64
2021/05/12 04:07:39;;;;;;;18.88;14.00;;;9.40;99.90;;;;;;5070058;28;20016;-64
2021/05/12 04:10:06;;;;;;;19.15;13.40;;;9.40;99.90;;;;;;5069837;28;20032;-65
2021/05/12 04:12:32;;;;;;;18.20;13.07;;;9.40;99.90;;;;;;5071085;28;20029;-66
2021/05/12 04:14:57;;;;;;;18.73;12.88;;;9.30;99.90;;;;;;5071078;28;20035;-65
2021/05/12 04:17:23;;;;;;;23.00;12.80;;;9.30;99.90;;;;;;5070116;28;20487;-65
2021/05/12 04:19:48;;;;;;;18.05;12.98;;;9.40;99.90;;;;;;5071190;28;20016;-65
2021/05/12 04:22:15;;;;;;;18.73;12.88;;;9.40;99.90;;;;;;5071114;28;20056;-65
2021/05/12 04:24:41;;;;;;;17.40;11.63;;;9.40;99.90;;;;;;5071417;28;20453;-65
2021/05/12 04:27:07;;;;;;;21.35;10.93;;;9.40;99.90;;;;;;5070944;28;20106;-65
2021/05/12 04:29:33;;;;;;;18.20;11.32;;;9.40;99.90;;;;;;5069601;28;20448;-65
2021/05/12 04:31:58;;;;;;;13.35;9.52;;;9.40;99.90;;;;;;5070785;28;20477;-65
2021/05/12 04:34:24;;;;;;;14.13;8.95;;;9.40;99.90;;;;;;5071068;28;20019;-65
2021/05/12 04:36:50;;;;;;;18.02;9.30;;;9.40;99.90;;;;;;5069638;28;20492;-64
2021/05/12 04:39:15;;;;;;;12.80;8.77;;;9.40;99.90;;;;;;5069562;28;20024;-64
2021/05/12 04:41:41;;;;;;;16.70;8.52;;;9.40;99.90;;;;;;5070667;28;20493;-64
2021/05/12 04:44:06;;;;;;;14.95;9.30;;;9.40;99.90;;;;;;5069575;28;20377;-65
2021/05/12 04:46:32;;;;;;;14.70;9.15;;;9.40;99.90;;;;;;5071008;28;20028;-65
2021/05/12 04:48:58;;;;;;;18.65;10.27;;;9.30;99.90;;;;;;5069398;28;20025;-64
2021/05/12 04:51:24;;;;;;;17.85;9.98;;;9.30;99.90;;;;;;5069570;28;20141;-65
2021/05/12 04:53:49;;;;;;;17.25;8.90;;;9.30;99.90;;;;;;5070655;28;20479;-65
2021/05/12 04:56:15;;;;;;;13.85;8.82;;;9.40;99.90;;;;;;5069669;28;20046;-65
2021/05/12 04:58:41;;;;;;;19.75;9.88;;;9.40;99.90;;;;;;5069289;28;20085;-65
2021/05/12 05:01:07;;;;;;;16.27;8.95;;;9.50;99.90;;;;;;5070562;28;20025;-65
2021/05/12 05:03:39;;;;;;;15.13;9.63;;;9.50;99.90;;;;;;5068992;28;20071;-65
2021/05/12 05:06:05;;;;;;;14.98;9.23;;;9.60;99.90;;;;;;5070580;28;20029;-65
2021/05/12 05:08:31;;;;;;;14.45;9.35;;;9.60;99.90;;;;;;5070734;28;20037;-65
2021/05/12 05:10:56;;;;;;;17.23;9.50;;;9.60;99.90;;;;;;5070558;28;20423;-65
2021/05/12 05:13:22;;;;;;;16.70;10.18;;;9.60;99.90;;;;;;5070746;28;20029;-65
2021/05/12 05:15:47;;;;;;;14.55;9.98;;;9.60;99.90;;;;;;5070618;28;20021;-65
2021/05/12 05:18:14;;;;;;;17.20;9.85;;;9.70;99.90;;;;;;5070567;28;20437;-65
2021/05/12 05:20:39;;;;;;;16.13;9.40;;;9.70;99.90;;;;;;5070355;28;20021;-65
2021/05/12 05:23:05;;;;;;;17.35;9.50;;;9.70;99.90;;;;;;5070511;28;20017;-65
2021/05/12 05:25:32;;;;;;;12.75;8.20;;;9.80;99.90;;;;;;5073394;28;20056;-65
2021/05/12 05:27:57;;;;;;;15.63;8.45;;;9.80;99.90;;;;;;5074197;28;20044;-64
2021/05/12 05:30:23;;;;;;;16.20;7.60;;;9.90;99.90;;;;;;5072691;28;20021;-65
2021/05/12 05:32:49;;;;;;;16.90;7.85;;;10.00;99.90;;;;;;5074155;28;20043;-65
2021/05/12 05:35:14;;;;;;;14.25;6.88;;;10.00;99.90;;;;;;5074593;28;20044;-64
2021/05/12 05:37:40;;;;;;;14.48;7.50;;;10.00;99.90;;;;;;5074548;28;20544;-65
2021/05/12 05:40:06;;;;;;;14.60;8.15;;;10.10;99.90;;;;;;5074285;28;20029;-65
2021/05/12 05:42:32;;;;;;;11.02;6.93;;;10.10;99.90;;;;;;5074033;28;20055;-64
2021/05/12 05:44:57;;;;;;;16.05;7.47;;;10.20;99.90;;;;;;5072531;28;20029;-64
2021/05/12 05:47:23;;;;;;;11.27;7.50;;;10.30;99.90;;;;;;5073094;28;20421;-64
2021/05/12 05:49:49;;;;;;;12.65;7.75;;;10.40;99.90;;;;;;5064380;28;20059;-64
2021/05/12 05:52:14;;;;;;;18.05;7.07;;;10.40;99.90;;;;;;5063262;28;20020;-65
2021/05/12 05:54:40;;;;;;;13.50;6.57;;;10.50;99.90;;;;;;5060593;28;20024;-65
2021/05/12 05:57:07;;;;;;;12.05;7.00;;;10.60;99.90;;;;;;5060655;28;20032;-65
2021/05/12 05:59:33;;;;;;;14.68;6.47;;;10.60;99.90;;;;;;5059631;28;20013;-65
2021/05/12 06:02:00;;;;;;;12.75;6.07;;;10.70;99.90;;;;;;5058822;28;20119;-65
2021/05/12 06:04:26;;;;;;;9.30;4.95;;;10.80;99.90;;;;;;5057659;28;20573;-65
2021/05/12 06:06:54;;;;;;;11.35;5.40;;;10.90;99.90;;;;;;5065009;28;20115;-65
2021/05/12 06:09:20;;;;;;;13.15;5.63;;;11.00;99.90;;;;;;5051829;28;20033;-65
2021/05/12 06:11:46;;;;;;;10.02;5.50;;;11.10;99.90;;;;;;5055082;28;20024;-65
2021/05/12 06:14:12;;;;;;;9.68;4.82;;;11.20;99.90;;;;;;5060129;28;20447;-65
2021/05/12 06:16:37;;;;;;;11.48;5.18;;;11.20;99.90;;;;;;5059754;28;20036;-65
2021/05/12 06:19:03;;;;;;;11.43;4.50;;;11.30;99.90;;;;;;5063018;28;20025;-65
2021/05/12 06:21:29;;;;;;;11.38;4.93;;;11.30;99.90;;;;;;5053747;28;20425;-65
2021/05/12 06:23:55;;;;;;;11.93;5.07;;;11.40;99.90;;;;;;5057954;28;20063;-65
2021/05/12 06:26:22;;;;;;;11.60;4.60;;;11.40;99.90;;;;;;5062057;28;20131;-66
2021/05/12 06:28:48;;;;;;;12.13;4.43;;;11.50;99.90;;;;;;5057148;28;20037;-64
2021/05/12 06:31:14;;;;;;;12.07;4.55;;;11.60;99.90;;;;;;5055443;28;20040;-66
2021/05/12 06:33:43;;;;;;;9.50;3.83;;;11.80;99.90;;;;;;5055637;28;20029;-65
2021/05/12 06:36:09;;;;;;;10.55;4.03;;;12.00;99.90;;;;;;5049427;28;20435;-66
2021/05/12 06:38:35;;;;;;;10.02;4.40;;;12.00;99.90;;;;;;5050584;28;20798;-65
2021/05/12 06:41:01;;;;;;;11.82;4.75;;;12.00;99.90;;;;;;5049970;28;20033;-65
2021/05/12 06:43:27;;;;;;;12.63;4.70;;;12.10;99.90;;;;;;5050684;28;20378;-65
2021/05/12 06:45:53;;;;;;;10.88;4.07;;;12.20;99.90;;;;;;5053387;28;20456;-65
2021/05/12 06:48:19;;;;;;;8.50;3.90;;;12.30;99.90;;;;;;5055980;28;20029;-65
2021/05/12 06:50:45;;;;;;;7.95;3.40;;;12.50;99.90;;;;;;5056329;28;20024;-64
2021/05/12 06:53:11;;;;;;;12.43;3.17;;;12.50;99.90;;;;;;5046974;28;20356;-64
2021/05/12 06:55:37;;;;;;;10.35;3.42;;;12.40;99.90;;;;;;5046917;28;20051;-65
2021/05/12 06:58:05;;;;;;;8.73;3.25;;;12.40;99.90;;;;;;5052091;28;20033;-65
2021/05/12 07:00:31;;;;;;;9.32;3.40;;;12.90;99.90;;;;;;5059058;28;20422;-65
2021/05/12 07:02:57;;;;;;;8.38;3.10;;;13.60;99.90;;;;;;5045049;28;20021;-66
2021/05/12 07:05:22;;;;;;;9.05;3.58;;;14.70;99.90;;;;;;5053114;28;20078;-66
2021/05/12 07:07:48;;;;;;;6.22;2.35;;;15.80;99.90;;;;;;5059426;28;20036;-65
2021/05/12 07:10:15;;;;;;;8.45;2.63;;;15.80;99.90;;;;;;5057264;28;20826;-65
2021/05/12 07:12:40;;;;;;;9.07;2.97;;;15.70;99.90;;;;;;5051773;28;20953;-67
2021/05/12 07:15:08;;;;;;;8.90;2.50;;;16.10;99.90;;;;;;5055420;28;20103;-66
2021/05/12 07:17:34;;;;;;;8.32;2.65;;;16.40;99.90;;;;;;5058533;28;20035;-65
2021/05/12 07:20:00;;;;;;;9.55;2.78;;;16.60;99.90;;;;;;5058101;28;20028;-65
2021/05/12 07:22:26;;;;;;;9.82;2.50;;;17.10;99.90;;;;;;5061360;28;20240;-64
2021/05/12 07:24:51;;;;;;;6.18;2.53;;;17.30;99.90;;;;;;5060404;28;20316;-64
2021/05/12 07:27:18;;;;;;;8.98;2.40;;;17.60;99.90;;;;;;5062118;28;20050;-64
2021/05/12 07:29:44;;;;;;;11.38;3.03;;;17.00;99.90;;;;;;5055403;28;20263;-64
2021/05/12 07:32:10;;;;;;;10.20;2.97;;;17.20;99.90;;;;;;5051766;28;20044;-65
2021/05/12 07:34:36;;;;;;;8.57;2.55;;;17.50;99.90;;;;;;5058567;28;20029;-64
2021/05/12 07:37:02;;;;;;;9.02;2.83;;;17.80;99.90;;;;;;5059820;28;20051;-64
2021/05/12 07:39:29;;;;;;;9.80;3.13;;;18.30;99.90;;;;;;5059881;28;20029;-64
2021/05/12 07:41:59;;;;;;;7.40;2.35;;;18.30;99.90;;;;;;5050890;28;20501;-63
2021/05/12 07:44:24;;;;;;;10.43;2.80;;;18.90;99.90;;;;;;5052763;28;20394;-64
2021/05/12 07:46:50;;;;;;;8.63;2.67;;;18.20;99.90;;;;;;5054074;28;20029;-63
2021/05/12 07:49:17;;;;;;;9.88;2.75;;;18.70;99.90;;;;;;5057629;28;20162;-63
2021/05/12 07:51:43;;;;;;;9.50;2.90;;;19.30;99.40;;;;;;5056258;28;20024;-63
2021/05/12 07:54:08;;;;;;;9.10;2.63;;;19.60;99.00;;;;;;5064029;28;20031;-62
2021/05/12 07:56:34;;;;;;;8.15;2.20;;;19.70;96.50;;;;;;5055671;28;20039;-64
2021/05/12 07:58:59;;;;;;;10.52;2.78;;;20.40;91.50;;;;;;5057710;28;20287;-64
2021/05/12 08:01:31;;;;;;;9.77;3.03;;;19.60;96.70;;;;;;5057187;28;20058;-65
2021/05/12 08:03:57;;;;;;;5.70;2.58;;;20.10;96.90;;;;;;5060296;28;20039;-64
2021/05/12 08:06:22;;;;;;;8.80;2.50;;;19.90;92.90;;;;;;5051329;28;20405;-65
2021/05/12 08:08:48;;;;;;;10.98;2.83;;;19.60;95.00;;;;;;5048858;28;20136;-64
2021/05/12 08:11:14;;;;;;;9.82;2.60;;;20.30;93.90;;;;;;5052444;28;20029;-65
2021/05/12 08:13:39;;;;;;;18.27;3.42;;;21.30;91.60;;;;;;5058983;28;20028;-65
2021/05/12 08:16:05;;;;;;;7.70;2.55;;;22.20;86.70;;;;;;5054771;28;20028;-64
2021/05/12 08:18:31;;;;;;;11.40;2.90;;;22.30;73.30;;;;;;5056373;28;20046;-65
2021/05/12 08:20:57;;;;;;;9.93;2.45;;;21.90;72.50;;;;;;5050139;28;20012;-65
2021/05/12 08:23:24;;;;;;;9.93;2.90;;;20.90;78.50;;;;;;5057078;28;20025;-65
2021/05/12 08:25:50;;;;;;;9.18;2.40;;;20.20;90.40;;;;;;5055038;28;20116;-64
2021/05/12 08:28:17;;;;;;;13.10;2.80;;;19.90;94.10;;;;;;5058810;28;20365;-65
2021/05/12 08:30:46;;;;;;;8.48;2.53;;;19.30;97.20;;;;;;5054554;28;20074;-65
2021/05/12 08:33:16;;;;;;;8.63;2.70;;;18.90;95.90;;;;;;5051765;28;20467;-64
2021/05/12 08:35:46;;;;;;;13.13;2.70;;;18.20;98.90;;;;;;5053364;28;20036;-64
2021/05/12 08:38:18;;;;;;;8.82;2.30;;;18.90;96.80;;;;;;5049616;28;20085;-65
2021/05/12 08:40:48;;;;;;;11.68;2.63;;;18.60;97.50;;;;;;5058816;28;20148;-64
2021/05/12 08:43:15;;;;;;;11.35;2.30;;;19.10;98.90;;;;;;5051394;28;20032;-65
2021/05/12 08:45:44;;;;;;;11.50;3.05;;;19.30;96.10;;;;;;5053852;28;20027;-65
2021/05/12 08:48:14;;;;;;;11.15;2.80;;;19.30;96.50;;;;;;5053874;28;20028;-65
2021/05/12 08:50:40;;;;;;;9.57;2.35;;;20.10;94.60;;;;;;5053770;28;20127;-66
2021/05/12 08:53:06;;;;;;;10.23;3.35;;;19.50;92.30;;;;;;5058317;28;20033;-66
2021/05/12 08:55:33;;;;;;;10.25;3.00;;;19.50;92.30;;;;;;5052994;28;20604;-66
2021/05/12 08:57:59;;;;;;;7.65;2.17;;;19.60;93.60;;;;;;5059282;28;20028;-65
2021/05/12 09:00:26;;;;;;;9.35;2.67;;;20.40;85.00;;;;;;5046312;28;20032;-65
2021/05/12 09:02:51;;;;;;;7.93;2.60;;;20.30;81.40;;;;;;5049596;28;20115;-67
2021/05/12 09:05:18;;;;;;;6.15;2.63;;;19.80;87.60;;;;;;5050033;28;20119;-66
2021/05/12 09:07:44;;;;;;;8.18;2.45;;;19.60;90.20;;;;;;5048339;28;20025;-66
2021/05/12 09:10:11;;;;;;;8.35;2.30;;;18.90;91.40;;;;;;5054700;28;20501;-66
2021/05/12 09:12:48;;;;;;;6.45;1.67;;;19.00;90.40;;;;;;5054833;28;20557;-64
2021/05/12 09:15:17;;;;;;;8.55;2.20;;;19.30;85.20;;;;;;5052969;28;20064;-66
2021/05/12 09:17:48;;;;;;;5.80;1.90;;;19.70;89.40;;;;;;5055053;28;20024;-65
2021/05/12 09:20:20;;;;;;;10.40;2.38;;;19.20;86.60;;;;;;5058026;28;20110;-66
2021/05/12 09:23:09;;;;;;;10.35;2.00;;;18.50;93.20;;;;;;5058709;28;20144;-66
2021/05/12 09:25:37;;;;;;;9.43;2.00;;;19.00;93.00;;;;;;5063215;28;20041;-65
2021/05/12 09:28:17;;;;;;;8.65;2.53;;;19.60;88.20;;;;;;5051753;28;20596;-64
2021/05/12 09:30:48;;;;;;;11.65;2.33;;;19.30;88.30;;;;;;5070940;28;20028;-65
2021/05/12 09:33:32;;;;;;;9.40;2.17;;;20.00;83.20;;;;;;5059815;28;20064;-65
2021/05/12 09:35:58;;;;;;;9.80;2.50;;;18.50;91.60;;;;;;5058259;28;20074;-65
2021/05/12 09:38:26;;;;;;;10.35;2.05;;;18.30;94.50;;;;;;5056363;28;20381;-65
2021/05/12 09:41:05;;;;;;;13.00;2.72;;;17.90;98.50;;;;;;5054702;28;20082;-65
2021/05/12 09:43:32;;;;;;;11.57;2.75;;;17.50;97.50;;;;;;5054535;28;20110;-65
2021/05/12 09:46:20;;;;;;;10.15;2.22;;;17.20;99.50;;;;;;5063033;28;20082;-65
2021/05/12 09:48:58;;;;;;;8.82;2.38;;;17.30;99.20;;;;;;5074080;28;20120;-66
2021/05/12 09:51:25;;;;;;;8.48;2.00;;;17.50;99.90;;;;;;5062673;28;20031;-65
2021/05/12 09:54:09;;;;;;;10.13;2.15;;;17.40;98.90;;;;;;5059739;28;20025;-65
2021/05/12 09:56:45;;;;;;;12.45;2.33;;;17.60;98.10;;;;;;5060417;28;20016;-65
2021/05/12 09:59:23;;;;;;;7.78;1.92;;;18.40;99.10;;;;;;5057311;28;20039;-65
2021/05/12 10:01:53;;;;;;;9.63;2.35;;;19.20;93.20;;;;;;5055479;28;20044;-65
2021/05/12 10:04:24;;;;;;;10.32;2.00;;;18.70;92.10;;;;;;5050595;28;20033;-64
2021/05/12 10:06:53;;;;;;;7.28;1.80;;;19.20;93.50;;;;;;5055537;28;20029;-65
2021/05/12 10:09:30;;;;;;;8.65;2.00;;;18.70;95.60;;;;;;5055346;28;20029;-66
2021/05/12 10:12:08;;;;;;;6.55;1.75;;;17.90;96.20;;;;;;5056116;28;20024;-65
2021/05/12 10:14:35;;;;;;;8.43;1.70;;;17.20;99.90;;;;;;5073620;28;20223;-65
2021/05/12 10:17:06;;;;;;;7.93;1.75;;;17.20;97.60;;;;;;5061466;28;20035;-65
2021/05/12 10:19:33;;;;;;;8.52;1.58;;;17.50;98.80;;;;;;5060471;28;20028;-65
2021/05/12 10:22:00;;;;;;;8.38;1.95;;;18.70;92.70;;;;;;5066436;28;20219;-65
2021/05/12 10:24:27;;;;;;;7.00;1.63;;;18.90;92.00;;;;;;5053482;28;20051;-65
2021/05/12 10:26:54;;;;;;;10.07;1.90;;;18.90;87.20;;;;;;5056835;28;20099;-66
2021/05/12 10:29:21;;;;;;;7.72;1.85;;;18.20;91.10;;;;;;5049627;28;20037;-66
2021/05/12 10:31:48;;;;;;;6.60;1.90;;;17.80;93.70;;;;;;5054666;28;20180;-66
2021/05/12 10:34:18;;;;;;;5.00;1.50;;;18.00;94.10;;;;;;5053581;28;20051;-66
2021/05/12 10:36:44;;;;;;;7.88;1.83;;;17.50;95.80;;;;;;5055944;28;20021;-66
2021/05/12 10:39:10;;;;;;;6.70;2.08;;;17.20;98.40;;;;;;5057496;28;20075;-66
2021/05/12 10:41:48;;;;;;;6.78;2.25;;;17.10;98.20;;;;;;5055720;28;20075;-66
2021/05/12 10:44:21;;;;;;;8.18;1.85;;;16.80;99.90;;;;;;5048536;28;20120;-66
2021/05/12 10:46:49;;;;;;;12.55;2.45;;;16.50;99.90;;;;;;5047301;28;20051;-65
2021/05/12 10:49:22;;;;;;;5.72;1.77;;;16.50;99.90;;;;;;5050049;28;20032;-65
2021/05/12 10:51:48;;;;;;;7.20;2.03;;;16.30;99.90;;;;;;5050131;28;20146;-65
2021/05/12 10:54:14;;;;;;;7.45;2.13;;;16.30;99.90;;;;;;5048548;28;20021;-65
2021/05/12 10:56:42;;;;;;;7.10;2.05;;;16.30;99.90;;;;;;5059389;28;20078;-65
2021/05/12 10:59:15;;;;;;;10.63;2.00;;;16.20;99.90;;;;;;5062719;28;20031;-65
2021/05/12 11:01:41;;;;;;;7.03;1.90;;;15.80;99.90;;;;;;5064894;28;20028;-64
2021/05/12 11:04:19;;;;;;;9.30;2.25;;;15.60;99.90;;;;;;5062899;28;20086;-65
2021/05/12 11:06:44;;;;;;;10.15;2.08;;;15.60;99.90;;;;;;5051214;28;20021;-65
2021/05/12 11:09:22;;;;;;;4.75;1.42;;;15.70;99.90;;;;;;5063568;28;20122;-64
2021/05/12 11:11:47;;;;;;;5.97;2.00;;;16.00;99.90;;;;;;5067113;28;20078;-64
2021/05/12 11:14:31;;;;;;;9.25;2.38;;;16.20;99.90;;;;;;5054975;28;20705;-64
2021/05/12 11:17:13;;;;;;;6.30;1.60;;;16.60;99.90;;;;;;5068873;28;20067;-64
2021/05/12 11:19:42;;;;;;;9.18;1.83;;;17.30;99.90;;;;;;5070806;28;20025;-65
2021/05/12 11:22:36;;;;;;;6.03;1.80;;;17.00;98.50;;;;;;5069642;28;20033;-64
2021/05/12 11:25:35;;;;;;;9.57;2.10;;;16.90;97.00;;;;;;5068556;28;20043;-64
2021/05/12 11:31:10;;;;;;;5.55;1.52;;;16.60;99.70;;;;;;5059915;28;20040;-65
2021/05/12 11:33:39;;;;;;;7.13;1.48;;;16.80;98.90;;;;;;5063041;28;20035;-64
2021/05/12 11:36:12;;;;;;;5.45;1.55;;;16.50;99.90;;;;;;5051328;28;20064;-64
2021/05/12 11:38:40;;;;;;;7.75;1.50;;;17.10;98.30;;;;;;5051933;28;20016;-64
2021/05/12 11:41:28;;;;;;;5.38;1.23;;;17.40;97.90;;;;;;5051555;28;20018;-64
2021/05/12 11:43:56;;;;;;;5.53;1.70;;;17.50;98.30;;;;;;5052058;28;20028;-64
2021/05/12 11:46:29;;;;;;;8.93;2.28;;;18.20;96.60;;;;;;5050632;28;20417;-65
2021/05/12 11:49:06;;;;;;;8.07;2.05;;;18.30;96.00;;;;;;5050550;28;20091;-65
2021/05/12 11:51:31;;;;;;;7.93;1.92;;;18.00;96.90;;;;;;5058015;28;20030;-65
2021/05/12 11:53:58;;;;;;;6.60;2.00;;;18.80;95.90;;;;;;5058494;28;20111;-65
2021/05/12 11:56:24;;;;;;;10.35;2.28;;;20.30;93.60;;;;;;5065728;28;20480;-65
2021/05/12 11:58:57;;;;;;;9.32;1.85;;;20.60;89.00;;;;;;5062499;28;20350;-65
2021/05/12 12:01:23;;;;;;;8.95;2.00;;;20.30;89.10;;;;;;5070250;28;20055;-65
2021/05/12 12:04:06;;;;;;;6.95;2.08;;;20.00;89.30;;;;;;5051825;28;20032;-65
2021/05/12 12:06:43;;;;;;;7.85;1.90;;;20.00;90.80;;;;;;5050209;28;20025;-65
2021/05/12 12:09:09;;;;;;;7.20;2.05;;;19.60;91.90;;;;;;5049840;28;20029;-65
2021/05/12 12:11:35;;;;;;;7.30;2.08;;;19.40;91.60;;;;;;5052305;28;20056;-65
2021/05/12 12:14:02;;;;;;;6.80;1.88;;;19.70;92.70;;;;;;5069827;28;20032;-63
2021/05/12 12:16:28;;;;;;;11.57;2.53;;;20.30;87.70;;;;;;5065978;28;20071;-65
2021/05/12 12:18:55;;;;;;;23.00;3.70;;;21.30;84.80;;;;;;5051356;28;20025;-65
2021/05/12 12:21:30;;;;;;;12.98;2.70;;;22.60;73.10;;;;;;5054789;28;20017;-64
2021/05/12 12:24:07;;;;;;;8.02;2.00;;;24.80;59.10;;;;;;5064642;28;20036;-64
2021/05/12 12:26:33;;;;;;;5.45;1.92;;;25.30;52.10;;;;;;5066196;28;20044;-64
2021/05/12 12:29:05;;;;;;;4.82;1.65;;;25.40;50.80;;;;;;5050454;28;20032;-65
2021/05/12 12:31:37;;;;;;;6.50;2.03;;;24.80;51.70;;;;;;5050837;28;20541;-64
2021/05/12 12:34:20;;;;;;;6.40;1.55;;;23.50;53.30;;;;;;5049721;28;20079;-64
2021/05/12 12:36:51;;;;;;;6.80;1.50;;;22.90;56.20;;;;;;5049795;28;20029;-64
2021/05/12 12:39:18;;;;;;;7.75;1.95;;;22.00;57.20;;;;;;5055734;28;20510;-65
2021/05/12 12:41:51;;;;;;;8.68;1.60;;;21.20;63.50;;;;;;5070458;28;20031;-65
2021/05/12 12:44:18;;;;;;;8.80;1.85;;;20.70;68.00;;;;;;5071007;28;20016;-65
2021/05/12 12:46:55;;;;;;;11.57;2.08;;;20.30;72.60;;;;;;5069505;28;20032;-64